TimeCDT,TemperatureF,Dew PointF,Humidity,Sea Level PressureIn,VisibilityMPH,Wind Direction,Wind SpeedMPH,Gust SpeedMPH,PrecipitationIn,Events,Conditions,WindDirDegrees,DateUTC
12:51 AM,82.9,75.0,77,29.97,10.0,SE,4.6,-,N/A,,Partly Cloudy,140,2013-08-16 05:51:00
1:51 AM,81.0,73.9,79,29.95,10.0,SE,3.5,-,N/A,,Partly Cloudy,140,2013-08-16 06:51:00
2:51 AM,80.1,73.9,81,29.94,10.0,SE,3.5,-,N/A,,Partly Cloudy,140,2013-08-16 07:51:00
3:51 AM,81.0,75.9,85,29.93,10.0,SSE,6.9,-,N/A,,Partly Cloudy,160,2013-08-16 08:51:00
4:51 AM,82.0,75.9,82,29.93,10.0,Calm,Calm,-,N/A,,Scattered Clouds,0,2013-08-16 09:51:00
5:51 AM,81.0,75.0,82,29.93,10.0,Calm,Calm,-,N/A,,Mostly Cloudy,0,2013-08-16 10:51:00
6:51 AM,80.1,75.0,85,29.93,10.0,South,3.5,-,N/A,,Scattered Clouds,170,2013-08-16 11:51:00
7:51 AM,82.0,75.0,79,29.95,10.0,Calm,Calm,-,N/A,,Mostly Cloudy,0,2013-08-16 12:51:00
8:51 AM,84.0,77.0,79,29.97,10.0,Calm,Calm,-,N/A,,Scattered Clouds,0,2013-08-16 13:51:00
9:51 AM,87.1,73.9,65,29.97,10.0,SSW,3.5,-,N/A,,Scattered Clouds,200,2013-08-16 14:51:00
10:51 AM,90.0,72.0,55,29.98,10.0,Calm,Calm,-,N/A,,Scattered Clouds,0,2013-08-16 15:51:00
11:51 AM,93.9,70.0,46,29.97,10.0,Calm,Calm,-,N/A,,Scattered Clouds,0,2013-08-16 16:51:00
12:51 PM,95.0,71.1,46,29.95,10.0,Calm,Calm,-,N/A,,Scattered Clouds,0,2013-08-16 17:51:00
1:51 PM,97.0,69.1,40,29.94,10.0,Variable,6.9,-,N/A,,Scattered Clouds,0,2013-08-16 18:51:00
2:51 PM,98.1,71.1,42,29.92,10.0,ENE,11.5,17.3,N/A,,Scattered Clouds,70,2013-08-16 19:51:00
3:51 PM,98.1,71.1,42,29.90,10.0,East,13.8,19.6,N/A,,Scattered Clouds,100,2013-08-16 20:51:00
4:51 PM,97.0,71.1,43,29.88,10.0,ESE,11.5,19.6,N/A,,Partly Cloudy,110,2013-08-16 21:51:00
5:51 PM,95.0,72.0,47,29.88,10.0,SE,13.8,19.6,N/A,,Partly Cloudy,130,2013-08-16 22:51:00
6:51 PM,91.9,73.0,54,29.88,10.0,SSE,16.1,20.7,N/A,,Partly Cloudy,150,2013-08-16 23:51:00
7:51 PM,89.1,72.0,57,29.88,10.0,SSE,13.8,-,N/A,,Partly Cloudy,150,2013-08-17 00:51:00
8:51 PM,86.0,75.9,72,29.90,10.0,SSE,9.2,-,N/A,,Partly Cloudy,160,2013-08-17 01:51:00
9:51 PM,84.9,75.9,74,29.94,10.0,SE,11.5,-,N/A,,Mostly Cloudy,140,2013-08-17 02:51:00
10:51 PM,84.9,75.9,74,29.96,10.0,SE,11.5,-,N/A,,Mostly Cloudy,130,2013-08-17 03:51:00
11:47 PM,80.6,73.4,79,30.00,5.0,East,17.3,27.6,0.01,Rain-Thunderstorm,Thunderstorms and Rain,90,2013-08-17 04:47:00
11:51 PM,80.1,73.9,81,30.00,8.0,ESE,13.8,26.5,0.12,Rain-Thunderstorm,Light Thunderstorms and Rain,110,2013-08-17 04:51:00